Time;durP1;ratioP1;P1;durP2;ratioP2;P2;SDS_P1;SDS_P2;PMS_P1;PMS_P2;Temp;Humidity;BMP_temperature;BMP_pressure;BME280_temperature;BME280_humidity;BME280_pressure;Samples;Min_cycle;Max_cycle;Signal;HPM_P1;HPM_P2
2023/12/30 00:00:09;;;;;;;2.90;1.20;;;;;19.80;99787.00;;;;2084096;28;21030;-51
2023/12/30 00:01:09;;;;;;;2.50;0.90;;;;;19.80;99791.00;;;;2083951;28;20315;-51
2023/12/30 00:02:09;;;;;;;3.70;1.10;;;;;19.80;99799.00;;;;2073726;28;20490;-51
2023/12/30 00:03:10;;;;;;;2.97;0.97;;;;;19.30;99799.00;;;;2081967;28;20263;-51
2023/12/30 00:04:10;;;;;;;3.13;1.00;;;;;19.30;99797.00;;;;2085556;28;20240;-51
2023/12/30 00:05:10;;;;;;;2.03;0.80;;;;;19.80;99788.00;;;;2085559;28;20235;-51
2023/12/30 00:06:11;;;;;;;1.77;1.07;;;;;19.80;99798.00;;;;2083838;28;20217;-51
2023/12/30 00:07:11;;;;;;;4.03;1.00;;;;;19.80;99800.00;;;;2075171;28;20213;-51
2023/12/30 00:08:11;;;;;;;2.70;0.80;;;;;19.80;99795.00;;;;2079598;28;20666;-51
2023/12/30 00:09:12;;;;;;;2.03;0.77;;;;;19.80;99798.00;;;;2081396;28;20737;-51
2023/12/30 00:10:12;;;;;;;3.23;1.20;;;;;19.90;99795.00;;;;2084521;28;20212;-51
2023/12/30 00:11:14;;;;;;;2.70;0.83;;;;;19.80;99801.00;;;;2085498;28;20262;-51
2023/12/30 00:12:14;;;;;;;2.83;1.15;;;;;19.80;99806.00;;;;2078284;28;20242;-50
2023/12/30 00:13:15;;;;;;;2.30;0.90;;;;;19.80;99807.00;;;;2084595;28;20251;-51
2023/12/30 00:14:15;;;;;;;3.00;1.10;;;;;19.80;99810.00;;;;2085001;28;20213;-50
2023/12/30 00:15:16;;;;;;;1.80;0.83;;;;;19.80;99806.00;;;;2079409;28;20217;-51
2023/12/30 00:16:16;;;;;;;2.10;0.67;;;;;19.80;99848.00;;;;2091023;28;20254;-50
2023/12/30 00:17:17;;;;;;;2.47;1.00;;;;;19.80;99844.00;;;;2082900;28;20954;-50
2023/12/30 00:18:17;;;;;;;2.20;0.87;;;;;19.80;99812.00;;;;2082921;28;20746;-50
2023/12/30 00:19:17;;;;;;;1.87;0.90;;;;;19.80;99821.00;;;;2084929;28;20220;-50
2023/12/30 00:20:18;;;;;;;3.30;1.10;;;;;19.80;99820.00;;;;2084053;28;20628;-50
2023/12/30 00:21:19;;;;;;;3.65;1.35;;;;;19.80;99824.00;;;;2086948;28;20221;-50
2023/12/30 00:22:19;;;;;;;2.90;1.30;;;;;19.80;99840.00;;;;2075400;28;20247;-51
2023/12/30 00:23:20;;;;;;;3.20;0.93;;;;;19.80;99827.00;;;;2084654;28;20217;-51
2023/12/30 00:24:21;;;;;;;3.07;0.77;;;;;19.80;99822.00;;;;2086765;28;20228;-50
2023/12/30 00:25:22;;;;;;;2.00;0.80;;;;;19.80;99819.00;;;;2085232;28;20465;-52
2023/12/30 00:26:23;;;;;;;2.83;1.10;;;;;19.80;99812.00;;;;2086428;28;20308;-53
2023/12/30 00:27:23;;;;;;;1.80;0.70;;;;;19.80;99818.00;;;;2076408;28;20223;-51
2023/12/30 00:28:23;;;;;;;3.40;1.03;;;;;19.80;99840.00;;;;2087092;28;21067;-52
2023/12/30 00:29:24;;;;;;;2.47;1.00;;;;;19.80;99683.00;;;;2088642;28;20717;-51
2023/12/30 00:30:24;;;;;;;2.27;0.87;;;;;19.80;99828.00;;;;2085554;28;20554;-51
2023/12/30 00:31:25;;;;;;;3.87;1.00;;;;;19.80;99828.00;;;;2085710;28;20259;-51
2023/12/30 00:32:26;;;;;;;2.60;0.88;;;;;19.80;99826.00;;;;2075695;28;20735;-51
2023/12/30 00:33:26;;;;;;;2.40;1.10;;;;;19.80;99828.00;;;;2093535;28;20212;-51
2023/12/30 00:34:26;;;;;;;2.53;0.83;;;;;19.90;99838.00;;;;2087892;28;20220;-51
2023/12/30 00:35:27;;;;;;;2.83;1.03;;;;;19.80;99836.00;;;;2082584;28;20221;-51
2023/12/30 00:36:27;;;;;;;2.20;0.97;;;;;19.80;99836.00;;;;2086159;28;20216;-50
2023/12/30 00:37:28;;;;;;;3.97;1.50;;;;;19.80;99842.00;;;;2076990;28;20209;-51
2023/12/30 00:38:28;;;;;;;3.33;0.90;;;;;19.80;99837.00;;;;2093144;28;20212;-50
2023/12/30 00:39:28;;;;;;;1.67;0.70;;;;;19.80;99842.00;;;;2080072;28;20629;-50
2023/12/30 00:40:29;;;;;;;3.50;1.50;;;;;19.80;99838.00;;;;2083633;28;20811;-51
2023/12/30 00:41:29;;;;;;;4.30;1.13;;;;;19.80;99845.00;;;;2085806;28;20224;-50
2023/12/30 00:42:29;;;;;;;2.27;0.70;;;;;19.80;99842.00;;;;2082316;28;20244;-52
2023/12/30 00:43:30;;;;;;;4.30;0.97;;;;;19.80;99849.00;;;;2092718;28;20208;-51
2023/12/30 00:44:30;;;;;;;2.47;1.13;;;;;19.80;99843.00;;;;2086097;28;20259;-51
2023/12/30 00:45:30;;;;;;;2.47;0.80;;;;;19.80;99848.00;;;;2093473;28;20240;-51
2023/12/30 00:46:31;;;;;;;2.80;0.93;;;;;19.80;99838.00;;;;2083673;28;20247;-51
2023/12/30 00:47:31;;;;;;;3.13;0.77;;;;;19.80;99848.00;;;;2077049;28;20223;-51
2023/12/30 00:48:31;;;;;;;2.80;0.90;;;;;19.80;99848.00;;;;2083927;28;20903;-51
2023/12/30 00:49:32;;;;;;;2.80;1.03;;;;;19.80;99845.00;;;;2086792;28;20243;-51
2023/12/30 00:50:32;;;;;;;1.90;0.70;;;;;19.80;99838.00;;;;2083166;28;20796;-51
2023/12/30 00:51:32;;;;;;;3.07;1.20;;;;;19.80;99842.00;;;;2085975;28;20248;-51
2023/12/30 00:52:33;;;;;;;1.97;0.70;;;;;19.80;99840.00;;;;2084199;28;20722;-50
2023/12/30 00:53:33;;;;;;;1.87;0.70;;;;;19.80;99843.00;;;;2080985;28;20698;-50
2023/12/30 00:54:33;;;;;;;2.17;0.70;;;;;19.80;99848.00;;;;2085800;28;20209;-51
2023/12/30 00:55:34;;;;;;;2.07;0.87;;;;;19.80;99843.00;;;;2083996;28;20227;-51
2023/12/30 00:56:34;;;;;;;3.10;0.90;;;;;19.80;99844.00;;;;2092768;28;20273;-55
2023/12/30 00:57:34;;;;;;;3.33;0.90;;;;;19.80;99861.00;;;;2079739;28;20220;-51
2023/12/30 00:58:35;;;;;;;1.50;0.60;;;;;19.80;99858.00;;;;2084682;28;20255;-50
2023/12/30 00:59:35;;;;;;;2.90;0.80;;;;;19.80;99857.00;;;;2086271;28;20217;-51
2023/12/30 01:00:35;;;;;;;3.30;0.80;;;;;19.80;99851.00;;;;2081345;28;20220;-51
2023/12/30 01:01:36;;;;;;;4.33;1.30;;;;;19.80;99861.00;;;;2078663;28;20286;-50
2023/12/30 01:02:36;;;;;;;3.47;1.20;;;;;19.80;99861.00;;;;2086823;28;20677;-51
2023/12/30 01:03:36;;;;;;;2.60;0.97;;;;;19.80;99859.00;;;;2086663;28;20216;-51
2023/12/30 01:04:37;;;;;;;3.67;0.77;;;;;19.80;99867.00;;;;2078614;28;20260;-50
2023/12/30 01:05:37;;;;;;;2.50;0.90;;;;;19.80;99866.00;;;;2085966;28;20220;-50
2023/12/30 01:06:38;;;;;;;4.30;0.80;;;;;19.80;99867.00;;;;2076148;28;20224;-50
2023/12/30 01:07:38;;;;;;;2.37;0.90;;;;;19.80;99868.00;;;;2086680;28;20220;-51
2023/12/30 01:08:38;;;;;;;2.47;0.80;;;;;19.80;99878.00;;;;2088148;28;20257;-50
2023/12/30 01:09:38;;;;;;;2.43;0.70;;;;;19.80;99873.00;;;;2084039;28;20251;-50
2023/12/30 01:10:39;;;;;;;2.07;0.90;;;;;19.80;99878.00;;;;2085063;28;20220;-51
2023/12/30 01:11:40;;;;;;;2.73;1.00;;;;;19.80;99880.00;;;;2075702;28;20249;-51
2023/12/30 01:12:41;;;;;;;2.67;0.90;;;;;19.80;99878.00;;;;2086380;28;20592;-51
2023/12/30 01:13:41;;;;;;;1.73;0.80;;;;;19.80;99878.00;;;;2085802;28;20240;-50
2023/12/30 01:14:41;;;;;;;2.40;0.80;;;;;19.80;99882.00;;;;2086446;28;20277;-51
2023/12/30 01:15:42;;;;;;;2.03;0.90;;;;;19.80;99880.00;;;;2087699;28;20217;-50
2023/12/30 01:16:42;;;;;;;2.10;0.87;;;;;19.80;99884.00;;;;2076716;28;20649;-50
2023/12/30 01:17:42;;;;;;;2.40;0.90;;;;;19.80;99880.00;;;;2086525;28;20630;-51
2023/12/30 01:18:43;;;;;;;1.90;0.70;;;;;19.80;99884.00;;;;2079504;28;20225;-51
2023/12/30 01:19:43;;;;;;;2.60;0.70;;;;;19.80;99884.00;;;;2078358;28;20221;-55
2023/12/30 01:20:43;;;;;;;2.17;0.90;;;;;19.80;99883.00;;;;2084136;28;20251;-54
2023/12/30 01:21:44;;;;;;;2.90;0.83;;;;;19.30;99878.00;;;;2076757;28;20692;-52
2023/12/30 01:22:44;;;;;;;2.60;0.83;;;;;19.80;99877.00;;;;2085707;28;20212;-54
2023/12/30 01:23:44;;;;;;;2.17;0.70;;;;;19.80;99883.00;;;;2086260;28;20209;-54
2023/12/30 01:24:45;;;;;;;3.30;1.00;;;;;19.80;99885.00;;;;2086386;28;20307;-52
2023/12/30 01:25:45;;;;;;;2.67;1.40;;;;;19.80;99892.00;;;;2085647;28;20290;-53
2023/12/30 01:26:46;;;;;;;2.53;1.00;;;;;19.80;99887.00;;;;2076736;28;26437;-53
2023/12/30 01:27:46;;;;;;;2.23;1.00;;;;;19.80;99887.00;;;;2080823;28;20320;-52
2023/12/30 01:28:46;;;;;;;1.60;0.70;;;;;19.80;99888.00;;;;2083361;28;20617;-54
2023/12/30 01:29:47;;;;;;;2.27;0.90;;;;;19.80;99896.00;;;;2083907;28;20632;-54
2023/12/30 01:30:47;;;;;;;2.83;1.00;;;;;19.70;99897.00;;;;2091681;28;20571;-52
2023/12/30 01:31:47;;;;;;;4.60;0.90;;;;;19.80;99890.00;;;;2075532;28;20615;-51
2023/12/30 01:32:47;;;;;;;1.90;0.80;;;;;19.80;99898.00;;;;2085619;28;20568;-51
2023/12/30 01:33:48;;;;;;;3.10;0.80;;;;;19.80;99905.00;;;;2086526;28;20642;-50
2023/12/30 01:34:48;;;;;;;2.87;0.77;;;;;19.80;99905.00;;;;2083691;28;20566;-52
2023/12/30 01:35:49;;;;;;;2.10;0.90;;;;;19.80;99928.00;;;;2086487;28;20696;-52
2023/12/30 01:36:49;;;;;;;1.67;0.60;;;;;19.80;99898.00;;;;2075101;28;20892;-55
2023/12/30 01:37:49;;;;;;;2.53;1.03;;;;;19.80;99899.00;;;;2085421;28;20209;-52
2023/12/30 01:38:50;;;;;;;3.20;1.07;;;;;19.80;99906.00;;;;2093701;28;20212;-52
2023/12/30 01:39:51;;;;;;;2.03;0.77;;;;;19.80;99904.00;;;;2078000;28;20275;-51
2023/12/30 01:40:53;;;;;;;3.42;1.10;;;;;19.80;99900.00;;;;2085615;28;20240;-52
2023/12/30 01:41:53;;;;;;;2.72;0.90;;;;;19.80;99909.00;;;;2077592;28;20293;-55
2023/12/30 01:42:53;;;;;;;2.97;0.90;;;;;19.80;99923.00;;;;2087487;28;20244;-55
2023/12/30 01:43:54;;;;;;;2.47;0.97;;;;;19.80;99911.00;;;;2090114;28;22183;-52
2023/12/30 01:44:54;;;;;;;2.93;1.10;;;;;19.80;99910.00;;;;2086368;28;20209;-51
2023/12/30 01:46:01;;;;;;;2.43;0.90;;;;;19.80;99923.00;;;;2086123;28;20213;-53
2023/12/30 01:47:02;;;;;;;1.65;0.70;;;;;19.80;99924.00;;;;2075470;28;20223;-53
2023/12/30 01:48:03;;;;;;;2.10;0.87;;;;;19.80;99918.00;;;;2085839;28;20755;-51
2023/12/30 01:49:03;;;;;;;3.78;1.05;;;;;19.80;99917.00;;;;2084259;28;20213;-54
2023/12/30 01:50:07;;;;;;;3.00;0.73;;;;;19.80;99921.00;;;;2077016;28;20241;-53
2023/12/30 01:51:08;;;;;;;1.95;0.88;;;;;19.80;99925.00;;;;2067637;28;20214;-52
2023/12/30 01:52:09;;;;;;;2.20;0.90;;;;;19.80;99924.00;;;;2063786;28;20221;-51
2023/12/30 01:53:09;;;;;;;4.60;1.00;;;;;19.80;99934.00;;;;2085980;28;20220;-51
2023/12/30 01:54:09;;;;;;;2.10;0.97;;;;;19.80;99925.00;;;;2083807;28;20208;-51
2023/12/30 01:55:10;;;;;;;2.47;0.80;;;;;19.70;99939.00;;;;2077465;28;20217;-50
2023/12/30 01:56:10;;;;;;;2.30;0.90;;;;;19.70;99929.00;;;;2083740;28;20231;-52
2023/12/30 01:57:11;;;;;;;2.30;0.90;;;;;19.70;99935.00;;;;2075206;28;20220;-50
2023/12/30 01:58:11;;;;;;;3.10;1.03;;;;;19.80;99941.00;;;;2085866;28;20212;-51
2023/12/30 01:59:15;;;;;;;2.07;0.90;;;;;19.70;99943.00;;;;2086101;28;20213;-54
2023/12/30 02:00:19;;;;;;;2.15;1.00;;;;;19.70;99991.00;;;;2076340;28;20275;-53
2023/12/30 02:01:24;;;;;;;3.25;0.80;;;;;19.70;99948.00;;;;2083685;28;20216;-51
2023/12/30 02:02:25;;;;;;;3.30;0.93;;;;;19.70;99949.00;;;;2075911;28;20220;-50
2023/12/30 02:03:27;;;;;;;2.05;0.70;;;;;19.70;99948.00;;;;2077414;28;20739;-52
2023/12/30 02:04:29;;;;;;;2.45;0.80;;;;;19.70;99950.00;;;;2076386;28;20217;-53
2023/12/30 02:05:30;;;;;;;1.95;1.00;;;;;19.70;99951.00;;;;2072541;28;20714;-52
2023/12/30 02:06:31;;;;;;;2.03;0.97;;;;;19.70;99950.00;;;;2081433;28;20503;-54
2023/12/30 02:07:32;;;;;;;2.90;1.02;;;;;19.70;99950.00;;;;2069612;28;20338;-51
2023/12/30 02:08:32;;;;;;;3.13;0.97;;;;;19.70;99951.00;;;;2089543;28;20605;-51
2023/12/30 02:09:32;;;;;;;2.37;0.83;;;;;19.70;99939.00;;;;2073532;28;20787;-54
2023/12/30 02:10:33;;;;;;;2.20;0.97;;;;;19.70;99941.00;;;;2082101;28;20593;-53
2023/12/30 02:11:33;;;;;;;2.83;0.90;;;;;19.70;99939.00;;;;2084135;28;20308;-51
2023/12/30 02:12:34;;;;;;;3.33;0.73;;;;;19.70;99937.00;;;;2075420;28;20645;-51
2023/12/30 02:13:34;;;;;;;3.05;0.90;;;;;19.70;99950.00;;;;2085135;28;21013;-51
2023/12/30 02:14:35;;;;;;;2.97;1.00;;;;;19.70;99946.00;;;;2086548;28;20260;-55
2023/12/30 02:15:36;;;;;;;2.05;0.75;;;;;19.70;99938.00;;;;2093305;28;20224;-53
2023/12/30 02:16:36;;;;;;;3.97;0.83;;;;;19.80;99947.00;;;;2075928;28;20220;-54
2023/12/30 02:17:36;;;;;;;1.60;0.60;;;;;19.70;99936.00;;;;2086302;28;20229;-51
2023/12/30 02:18:37;;;;;;;3.10;1.20;;;;;19.70;99950.00;;;;2084862;28;20266;-55
2023/12/30 02:19:38;;;;;;;1.93;0.90;;;;;19.70;99941.00;;;;2085991;28;20217;-51
2023/12/30 02:20:38;;;;;;;2.40;0.73;;;;;19.70;99943.00;;;;2083725;28;21161;-52
2023/12/30 02:21:38;;;;;;;3.17;0.80;;;;;19.70;99945.00;;;;2072636;28;20787;-51
2023/12/30 02:22:41;;;;;;;1.97;0.90;;;;;19.70;99938.00;;;;2076879;28;20245;-53
2023/12/30 02:23:42;;;;;;;1.92;0.70;;;;;19.70;99949.00;;;;2084444;28;20595;-51
2023/12/30 02:24:42;;;;;;;2.00;0.70;;;;;19.70;99929.00;;;;2086085;28;20225;-51
2023/12/30 02:25:44;;;;;;;2.03;0.80;;;;;19.70;99937.00;;;;2083777;28;20225;-51
2023/12/30 02:26:44;;;;;;;2.50;0.90;;;;;19.70;99939.00;;;;2074277;28;20221;-53
2023/12/30 02:27:45;;;;;;;3.00;0.80;;;;;19.70;99945.00;;;;2078741;28;21384;-51
2023/12/30 02:28:46;;;;;;;2.17;0.87;;;;;19.70;99951.00;;;;2086047;28;20770;-51
2023/12/30 02:29:46;;;;;;;2.40;0.90;;;;;19.70;99945.00;;;;2084848;28;20217;-53
2023/12/30 02:30:46;;;;;;;2.20;0.90;;;;;19.70;99947.00;;;;2084417;28;20212;-51
2023/12/30 02:31:47;;;;;;;2.33;0.83;;;;;19.70;99951.00;;;;2076170;28;20216;-52
2023/12/30 02:32:47;;;;;;;2.10;0.90;;;;;19.70;99954.00;;;;2086101;28;20283;-50
2023/12/30 02:33:48;;;;;;;2.37;0.90;;;;;19.70;99951.00;;;;2085680;28;20300;-54
2023/12/30 02:34:48;;;;;;;3.00;0.73;;;;;19.70;99949.00;;;;2084346;28;20223;-53
2023/12/30 02:35:48;;;;;;;3.83;1.00;;;;;19.70;99941.00;;;;2092740;28;20212;-51
2023/12/30 02:36:49;;;;;;;2.73;1.30;;;;;19.70;99953.00;;;;2073324;28;20247;-55
2023/12/30 02:37:50;;;;;;;2.27;0.80;;;;;19.70;99945.00;;;;2078549;28;20220;-51
2023/12/30 02:38:50;;;;;;;2.23;0.73;;;;;19.70;99952.00;;;;2084698;28;20228;-54
2023/12/30 02:39:50;;;;;;;2.27;0.87;;;;;19.70;99955.00;;;;2084603;28;20237;-52
2023/12/30 02:40:51;;;;;;;1.63;0.70;;;;;19.00;99959.00;;;;2084843;28;20211;-52
2023/12/30 02:41:52;;;;;;;2.40;0.70;;;;;19.70;99945.00;;;;2073195;28;20266;-54
2023/12/30 02:42:53;;;;;;;2.60;0.88;;;;;19.70;99949.00;;;;2085674;28;20220;-51
2023/12/30 02:43:56;;;;;;;3.27;0.90;;;;;19.70;99952.00;;;;2080759;28;20731;-51
2023/12/30 02:44:57;;;;;;;2.40;1.10;;;;;19.70;99949.00;;;;2075478;28;20583;-52
2023/12/30 02:45:57;;;;;;;2.90;0.80;;;;;19.70;99954.00;;;;2076744;28;20240;-51
2023/12/30 02:46:57;;;;;;;1.83;0.80;;;;;19.70;99954.00;;;;2069314;28;20243;-50
2023/12/30 02:48:00;;;;;;;2.40;0.80;;;;;19.70;99956.00;;;;2094330;28;20227;-50
2023/12/30 02:49:04;;;;;;;3.20;0.93;;;;;19.70;99955.00;;;;2081601;28;20223;-53
2023/12/30 02:50:05;;;;;;;2.10;0.90;;;;;19.70;99947.00;;;;2078746;28;20217;-54
2023/12/30 02:51:06;;;;;;;3.57;0.90;;;;;19.20;99956.00;;;;2084385;28;20213;-51
2023/12/30 02:52:06;;;;;;;3.87;1.00;;;;;19.10;99953.00;;;;2076681;28;20459;-53
2023/12/30 02:53:06;;;;;;;2.23;0.80;;;;;19.70;99964.00;;;;2091095;28;20220;-54
2023/12/30 02:54:08;;;;;;;3.90;1.00;;;;;19.70;99955.00;;;;2088818;28;20228;-55
2023/12/30 02:55:09;;;;;;;3.03;0.98;;;;;19.70;99953.00;;;;2083192;28;20580;-52
2023/12/30 02:56:18;;;;;;;3.77;1.30;;;;;19.70;99961.00;;;;2085641;28;20217;-51
2023/12/30 02:57:19;;;;;;;2.65;0.90;;;;;19.70;99961.00;;;;2072411;28;20293;-54
2023/12/30 02:58:19;;;;;;;1.97;0.67;;;;;19.70;99954.00;;;;2089429;28;20203;-51
2023/12/30 02:59:20;;;;;;;1.80;0.80;;;;;19.70;99962.00;;;;2086435;28;20220;-51
2023/12/30 03:00:21;;;;;;;1.77;0.77;;;;;19.70;99950.00;;;;2084412;28;20217;-50
2023/12/30 03:01:23;;;;;;;4.10;0.80;;;;;19.70;99967.00;;;;2082162;28;20731;-54
2023/12/30 03:02:23;;;;;;;2.13;1.02;;;;;19.70;99963.00;;;;2076024;28;20208;-53
2023/12/30 03:03:24;;;;;;;2.83;0.80;;;;;19.70;99962.00;;;;2082749;28;20563;-51
2023/12/30 03:04:25;;;;;;;3.00;1.03;;;;;19.70;99959.00;;;;2085673;28;20279;-51
2023/12/30 03:05:27;;;;;;;3.80;1.08;;;;;19.70;99960.00;;;;2082509;28;20197;-55
2023/12/30 03:06:28;;;;;;;3.08;0.90;;;;;19.70;99960.00;;;;2085482;28;20684;-52
2023/12/30 03:07:28;;;;;;;2.17;0.83;;;;;19.70;99968.00;;;;2075907;28;20221;-51
2023/12/30 03:08:29;;;;;;;3.10;0.83;;;;;19.60;99961.00;;;;2090255;28;20224;-51
2023/12/30 03:09:30;;;;;;;3.17;1.20;;;;;19.70;99965.00;;;;2086937;28;20235;-51
2023/12/30 03:10:30;;;;;;;3.28;1.38;;;;;19.70;99978.00;;;;2083247;28;20474;-50
2023/12/30 03:11:33;;;;;;;1.87;0.60;;;;;19.70;99968.00;;;;2081794;28;20227;-50
2023/12/30 03:12:34;;;;;;;2.33;0.90;;;;;19.70;99971.00;;;;2074276;28;20213;-51
2023/12/30 03:13:35;;;;;;;2.13;0.90;;;;;19.70;99978.00;;;;2084865;28;20303;-50
2023/12/30 03:14:35;;;;;;;1.90;0.70;;;;;19.70;99968.00;;;;2084668;28;20232;-52
2023/12/30 03:15:36;;;;;;;1.90;0.60;;;;;19.70;99965.00;;;;2083473;28;20654;-51
2023/12/30 03:16:36;;;;;;;2.30;0.73;;;;;19.70;99967.00;;;;2078768;28;20260;-55
2023/12/30 03:17:37;;;;;;;2.60;0.80;;;;;19.70;99962.00;;;;2084906;28;20227;-51
2023/12/30 03:18:40;;;;;;;2.30;0.70;;;;;19.70;99957.00;;;;2085460;28;20489;-53
2023/12/30 03:19:41;;;;;;;4.22;0.85;;;;;19.70;99960.00;;;;2084162;28;20216;-55
2023/12/30 03:20:41;;;;;;;2.07;0.73;;;;;19.70;99962.00;;;;2084424;28;20220;-50
2023/12/30 03:21:44;;;;;;;1.97;1.17;;;;;19.70;99739.00;;;;2077465;28;20574;-49
2023/12/30 03:22:44;;;;;;;2.35;0.70;;;;;19.60;99955.00;;;;2084710;28;20212;-55
2023/12/30 03:23:45;;;;;;;2.40;0.83;;;;;19.60;99960.00;;;;2089346;28;20204;-52
2023/12/30 03:24:46;;;;;;;1.87;0.60;;;;;19.70;99960.00;;;;2085659;28;20292;-54
2023/12/30 03:25:47;;;;;;;1.83;0.70;;;;;19.70;99963.00;;;;2091379;28;20257;-52
2023/12/30 03:26:47;;;;;;;3.00;0.70;;;;;19.70;99969.00;;;;2075889;28;20208;-51
2023/12/30 03:27:48;;;;;;;1.97;0.70;;;;;19.70;99965.00;;;;2085838;28;20216;-52
2023/12/30 03:28:48;;;;;;;2.00;0.80;;;;;19.60;99972.00;;;;2088381;28;20245;-55
2023/12/30 03:29:49;;;;;;;4.87;1.63;;;;;19.60;99962.00;;;;2083514;28;20544;-54
2023/12/30 03:30:50;;;;;;;2.85;1.02;;;;;19.60;99963.00;;;;2083771;28;20258;-52
2023/12/30 03:31:52;;;;;;;2.70;0.83;;;;;19.60;99965.00;;;;2074723;28;20243;-51
2023/12/30 03:32:52;;;;;;;2.17;0.68;;;;;19.60;99965.00;;;;2084273;28;20233;-51
2023/12/30 03:33:53;;;;;;;1.60;0.70;;;;;19.60;99969.00;;;;2084176;28;20204;-52
2023/12/30 03:34:53;;;;;;;2.10;0.60;;;;;19.60;99988.00;;;;2085543;28;20267;-54
2023/12/30 03:35:53;;;;;;;2.30;0.90;;;;;19.60;99966.00;;;;2084086;28;21020;-51
2023/12/30 03:36:54;;;;;;;2.20;0.87;;;;;19.60;99967.00;;;;2079689;28;29124;-51
2023/12/30 03:37:54;;;;;;;3.10;1.00;;;;;19.60;99974.00;;;;2091837;28;20887;-51
2023/12/30 03:38:54;;;;;;;1.67;0.63;;;;;19.60;99969.00;;;;2084692;28;20274;-51
2023/12/30 03:39:55;;;;;;;1.83;0.80;;;;;19.60;99977.00;;;;2082499;28;20589;-51
2023/12/30 03:40:57;;;;;;;3.17;1.00;;;;;19.70;99972.00;;;;2083482;28;20246;-51
2023/12/30 03:41:57;;;;;;;2.63;0.75;;;;;19.60;99771.00;;;;2064992;28;20371;-52
2023/12/30 03:42:57;;;;;;;3.43;0.90;;;;;19.60;99970.00;;;;2083245;28;20281;-54
2023/12/30 03:43:58;;;;;;;2.40;0.80;;;;;19.60;99976.00;;;;2091800;28;20640;-52
2023/12/30 03:44:58;;;;;;;3.57;1.00;;;;;19.60;99980.00;;;;2085070;28;20902;-54
2023/12/30 03:45:58;;;;;;;2.70;0.80;;;;;19.60;99977.00;;;;2083700;28;20213;-52
2023/12/30 03:46:59;;;;;;;1.70;0.73;;;;;19.60;99968.00;;;;2076935;28;20349;-50
2023/12/30 03:47:59;;;;;;;3.00;0.80;;;;;19.60;99971.00;;;;2078876;28;20332;-51
2023/12/30 03:49:00;;;;;;;1.80;0.80;;;;;19.60;99966.00;;;;2092903;28;20251;-54
2023/12/30 03:50:01;;;;;;;1.90;0.80;;;;;19.60;99975.00;;;;2084553;28;20337;-52
2023/12/30 03:51:02;;;;;;;2.47;0.80;;;;;19.60;99968.00;;;;2084269;28;20451;-54
2023/12/30 03:52:04;;;;;;;2.30;0.63;;;;;19.60;99978.00;;;;2075501;28;20574;-51
2023/12/30 03:53:05;;;;;;;2.65;0.75;;;;;19.60;99978.00;;;;2082877;28;20223;-53
2023/12/30 03:54:05;;;;;;;3.95;1.13;;;;;19.60;99975.00;;;;2085622;28;20584;-50
2023/12/30 03:55:06;;;;;;;2.23;1.10;;;;;19.60;99981.00;;;;2085731;28;20233;-55
2023/12/30 03:56:07;;;;;;;2.33;0.90;;;;;19.60;99966.00;;;;2094385;28;20589;-52
2023/12/30 03:57:07;;;;;;;3.50;0.90;;;;;19.60;99971.00;;;;2075602;28;20709;-51
2023/12/30 03:58:07;;;;;;;2.43;0.83;;;;;19.60;99980.00;;;;2088358;28;20228;-50
2023/12/30 03:59:08;;;;;;;2.77;1.00;;;;;19.60;99980.00;;;;2093883;28;20227;-53
2023/12/30 04:00:08;;;;;;;1.67;0.67;;;;;19.60;99973.00;;;;2087469;28;20216;-51
2023/12/30 04:01:08;;;;;;;3.90;1.03;;;;;19.60;99970.00;;;;2092664;28;20301;-52
2023/12/30 04:02:09;;;;;;;2.80;0.70;;;;;19.60;100001.00;;;;2076388;28;20710;-52
2023/12/30 04:03:09;;;;;;;2.50;1.07;;;;;19.60;99984.00;;;;2088617;28;20607;-54
2023/12/30 04:04:10;;;;;;;2.80;0.70;;;;;19.60;99976.00;;;;2093995;28;20215;-53
2023/12/30 04:05:10;;;;;;;2.37;0.97;;;;;19.60;99976.00;;;;2086867;28;20248;-53
2023/12/30 04:06:18;;;;;;;2.20;1.03;;;;;19.60;99989.00;;;;2086434;28;20559;-55
2023/12/30 04:07:18;;;;;;;2.10;0.70;;;;;19.60;99987.00;;;;2076948;28;20233;-54
2023/12/30 04:08:19;;;;;;;3.10;0.90;;;;;19.60;99988.00;;;;2088897;28;20214;-54
2023/12/30 04:09:19;;;;;;;2.10;0.60;;;;;19.60;99987.00;;;;2094912;28;20204;-54
2023/12/30 04:10:19;;;;;;;1.77;0.90;;;;;19.50;99984.00;;;;2089712;28;20239;-51
2023/12/30 04:11:20;;;;;;;2.63;0.90;;;;;19.60;99995.00;;;;2087037;28;20212;-51
2023/12/30 04:12:20;;;;;;;2.43;0.73;;;;;19.60;99984.00;;;;2076364;28;20636;-54
2023/12/30 04:13:21;;;;;;;3.23;0.83;;;;;19.60;99984.00;;;;2088342;28;20903;-53
2023/12/30 04:14:21;;;;;;;2.17;0.70;;;;;19.60;99987.00;;;;2092110;28;20227;-52
2023/12/30 04:15:21;;;;;;;3.67;0.97;;;;;19.60;99986.00;;;;2086234;28;20216;-50
2023/12/30 04:16:22;;;;;;;3.70;0.90;;;;;19.60;99985.00;;;;2087093;28;20216;-50
2023/12/30 04:17:22;;;;;;;1.90;0.70;;;;;19.60;99989.00;;;;2076969;28;20228;-50
2023/12/30 04:18:22;;;;;;;3.20;0.97;;;;;19.60;99982.00;;;;2089959;28;20210;-53
2023/12/30 04:19:24;;;;;;;1.90;0.70;;;;;19.60;99992.00;;;;2091605;28;20208;-50
2023/12/30 04:20:25;;;;;;;2.63;0.85;;;;;19.60;99997.00;;;;2084153;28;20223;-51
2023/12/30 04:21:25;;;;;;;1.67;0.68;;;;;19.60;99989.00;;;;2085885;28;20688;-50
2023/12/30 04:22:27;;;;;;;1.93;0.60;;;;;19.60;100040.00;;;;2071409;28;20307;-54
2023/12/30 04:23:27;;;;;;;2.25;0.77;;;;;19.60;99998.00;;;;2086215;28;20217;-53
2023/12/30 04:24:29;;;;;;;2.07;0.73;;;;;19.60;99978.00;;;;2081894;28;20235;-52
2023/12/30 04:25:29;;;;;;;3.08;0.85;;;;;19.60;99994.00;;;;2089829;28;20607;-52
2023/12/30 04:26:30;;;;;;;2.70;0.90;;;;;19.60;99992.00;;;;2090773;28;20228;-54
2023/12/30 04:27:30;;;;;;;3.33;1.00;;;;;19.60;99993.00;;;;2076168;28;20238;-52
2023/12/30 04:28:30;;;;;;;3.00;1.23;;;;;19.60;100001.00;;;;2087182;28;20479;-51
2023/12/30 04:29:31;;;;;;;4.00;0.70;;;;;19.60;100002.00;;;;2079157;28;20251;-51
2023/12/30 04:30:32;;;;;;;3.35;0.70;;;;;19.60;100007.00;;;;2080827;28;20212;-52
2023/12/30 04:31:33;;;;;;;3.50;0.80;;;;;19.60;100007.00;;;;2086269;28;20209;-51
2023/12/30 04:32:33;;;;;;;4.43;1.03;;;;;19.60;100011.00;;;;2071706;28;20897;-51
2023/12/30 04:33:34;;;;;;;2.72;1.58;;;;;19.60;100006.00;;;;2086533;28;20221;-55
2023/12/30 04:34:36;;;;;;;1.63;0.63;;;;;19.60;100005.00;;;;2085591;28;20661;-52
2023/12/30 04:35:39;;;;;;;2.33;1.00;;;;;19.60;100005.00;;;;2081908;28;20722;-51
2023/12/30 04:36:40;;;;;;;2.30;0.98;;;;;19.60;99998.00;;;;2075409;28;21303;-51
2023/12/30 04:37:44;;;;;;;2.20;0.70;;;;;19.00;99996.00;;;;2086775;28;20231;-52
2023/12/30 04:38:45;;;;;;;3.13;0.80;;;;;19.60;100003.00;;;;2086679;28;20814;-51
2023/12/30 04:39:46;;;;;;;2.20;0.80;;;;;19.60;100009.00;;;;2078500;28;20221;-54
2023/12/30 04:40:46;;;;;;;3.20;1.10;;;;;19.60;100008.00;;;;2084390;28;20712;-53
2023/12/30 04:41:47;;;;;;;2.20;0.73;;;;;19.60;100013.00;;;;2070084;28;20214;-51
2023/12/30 04:42:48;;;;;;;2.70;0.97;;;;;19.60;100012.00;;;;2084421;28;20212;-52
2023/12/30 04:43:48;;;;;;;3.17;0.80;;;;;19.60;100004.00;;;;2083237;28;20736;-54
2023/12/30 04:44:49;;;;;;;1.90;0.60;;;;;19.60;100013.00;;;;2081204;28;20217;-53
2023/12/30 04:45:50;;;;;;;2.03;0.80;;;;;19.60;100013.00;;;;2088445;28;20311;-52
2023/12/30 04:46:50;;;;;;;1.73;0.60;;;;;19.60;100011.00;;;;2076864;28;20444;-52
2023/12/30 04:47:53;;;;;;;2.87;0.90;;;;;19.60;100007.00;;;;2089225;28;20219;-54
2023/12/30 04:48:54;;;;;;;3.22;0.90;;;;;19.60;100014.00;;;;2083864;28;20708;-51
2023/12/30 04:49:55;;;;;;;3.27;0.67;;;;;19.60;100009.00;;;;2079020;28;20217;-50
2023/12/30 04:50:55;;;;;;;2.57;0.80;;;;;19.60;100002.00;;;;2079865;28;20464;-53
2023/12/30 04:51:58;;;;;;;2.27;0.90;;;;;19.60;100003.00;;;;2075962;28;20505;-53
2023/12/30 04:52:59;;;;;;;1.50;0.60;;;;;19.60;100007.00;;;;2086688;28;20791;-53
2023/12/30 04:54:00;;;;;;;2.87;0.70;;;;;19.60;100003.00;;;;2092008;28;20216;-52
2023/12/30 04:55:01;;;;;;;1.90;0.80;;;;;19.60;100002.00;;;;2086513;28;20216;-51
2023/12/30 04:56:04;;;;;;;2.10;0.75;;;;;19.60;100003.00;;;;2085765;28;20217;-50
2023/12/30 04:57:04;;;;;;;2.15;0.93;;;;;19.60;100005.00;;;;2069589;28;20230;-55
2023/12/30 04:58:04;;;;;;;2.80;0.63;;;;;19.60;100001.00;;;;2083939;28;20215;-53
2023/12/30 04:59:07;;;;;;;2.60;0.93;;;;;19.60;100002.00;;;;2094677;28;20220;-51
2023/12/30 05:00:09;;;;;;;3.47;1.00;;;;;19.60;99997.00;;;;2085707;28;21222;-52
2023/12/30 05:01:11;;;;;;;2.33;0.80;;;;;19.60;100004.00;;;;2084128;28;20213;-52
2023/12/30 05:02:11;;;;;;;2.65;1.10;;;;;19.60;100011.00;;;;2076695;28;20209;-54
2023/12/30 05:03:13;;;;;;;4.40;1.20;;;;;19.60;100005.00;;;;2086131;28;20209;-53